Time;durP1;ratioP1;P1;durP2;ratioP2;P2;SDS_P1;SDS_P2;PMS_P1;PMS_P2;Temp;Humidity;BMP_temperature;BMP_pressure;BME280_temperature;BME280_humidity;BME280_pressure;Samples;Min_cycle;Max_cycle;Signal;HPM_P1;HPM_P2
2024/03/14 00:02:18;;;;;;;5.47;4.70;;;12.40;99.90;;;;;;5093837;28;20229;-73
2024/03/14 00:04:44;;;;;;;4.47;3.80;;;12.30;99.90;;;;;;5093749;28;20249;-73
2024/03/14 00:07:10;;;;;;;5.63;5.03;;;12.30;99.90;;;;;;5093699;28;20198;-73
2024/03/14 00:09:36;;;;;;;8.10;5.60;;;12.30;99.90;;;;;;5093901;28;20248;-72
2024/03/14 00:12:01;;;;;;;5.03;4.20;;;12.20;99.90;;;;;;5093587;28;20463;-73
2024/03/14 00:14:27;;;;;;;5.00;4.60;;;12.30;99.90;;;;;;5093734;28;20412;-73
2024/03/14 00:16:53;;;;;;;5.80;5.27;;;12.30;99.90;;;;;;5093522;28;20272;-72
2024/03/14 00:19:21;;;;;;;6.10;5.03;;;12.20;99.90;;;;;;5093513;28;20240;-73
2024/03/14 00:21:48;;;;;;;6.97;5.37;;;12.10;99.90;;;;;;5092935;28;20264;-73
2024/03/14 00:24:14;;;;;;;6.83;6.13;;;12.10;99.90;;;;;;5073972;28;20447;-72
2024/03/14 00:26:40;;;;;;;5.93;5.30;;;12.20;99.90;;;;;;5093531;28;20436;-72
2024/03/14 00:29:06;;;;;;;6.67;5.00;;;12.10;99.90;;;;;;5092951;28;20404;-73
2024/03/14 00:31:40;;;;;;;10.10;6.53;;;12.00;99.90;;;;;;5093026;28;20431;-72
2024/03/14 00:34:07;;;;;;;5.87;5.37;;;11.80;99.90;;;;;;5093815;28;20194;-73
2024/03/14 00:36:37;;;;;;;7.10;6.10;;;11.80;99.90;;;;;;5093454;28;20895;-71
2024/03/14 00:39:06;;;;;;;8.60;6.47;;;11.70;99.90;;;;;;5092920;28;20396;-72
2024/03/14 00:41:35;;;;;;;7.90;6.67;;;11.70;99.90;;;;;;5093072;28;20440;-73
2024/03/14 00:44:01;;;;;;;7.07;6.37;;;11.50;99.90;;;;;;5093110;28;20414;-73
2024/03/14 00:46:27;;;;;;;8.30;6.17;;;11.40;99.90;;;;;;5093048;28;20407;-73
2024/03/14 00:48:53;;;;;;;9.07;6.70;;;11.40;99.90;;;;;;5075576;28;20509;-73
2024/03/14 00:51:19;;;;;;;8.57;7.67;;;11.40;99.90;;;;;;5093074;28;20454;-73
2024/03/14 00:53:45;;;;;;;8.23;7.00;;;11.40;99.90;;;;;;5093105;28;20244;-73
2024/03/14 00:56:15;;;;;;;9.67;8.27;;;11.30;99.90;;;;;;5093115;28;20496;-72
2024/03/14 00:58:41;;;;;;;9.60;8.13;;;11.20;99.90;;;;;;5093222;28;20410;-72
2024/03/14 01:01:07;;;;;;;9.37;6.93;;;11.30;99.90;;;;;;5092896;28;20894;-72
2024/03/14 01:03:33;;;;;;;9.20;7.40;;;11.30;99.90;;;;;;5093143;28;20448;-72
2024/03/14 01:05:58;;;;;;;9.30;8.30;;;11.30;99.90;;;;;;5074877;28;20507;-72
2024/03/14 01:08:24;;;;;;;9.27;7.70;;;11.30;99.90;;;;;;5092817;28;20169;-73
2024/03/14 01:10:50;;;;;;;9.03;7.57;;;11.30;99.90;;;;;;5077794;28;20200;-73
2024/03/14 01:13:15;;;;;;;8.67;6.57;;;11.40;99.90;;;;;;5092136;28;20638;-73
2024/03/14 01:15:41;;;;;;;8.90;7.57;;;11.40;99.90;;;;;;5092598;28;20260;-73
2024/03/14 01:18:07;;;;;;;8.60;7.70;;;11.40;99.90;;;;;;5092047;28;20171;-73
2024/03/14 01:20:33;;;;;;;9.43;8.47;;;11.50;99.90;;;;;;5092280;28;20198;-73
2024/03/14 01:22:59;;;;;;;10.27;6.30;;;11.50;99.90;;;;;;5092077;28;20228;-73
2024/03/14 01:25:24;;;;;;;8.20;7.40;;;11.60;99.90;;;;;;5091943;28;20451;-73
2024/03/14 01:27:50;;;;;;;7.43;6.50;;;11.60;99.90;;;;;;5092023;28;20166;-73
2024/03/14 01:30:16;;;;;;;6.70;6.00;;;11.60;99.90;;;;;;5074054;28;20162;-73
2024/03/14 01:32:41;;;;;;;10.40;8.00;;;11.70;99.90;;;;;;5092166;28;20594;-72
2024/03/14 01:35:08;;;;;;;10.40;6.80;;;11.60;99.90;;;;;;5092270;28;20265;-71
2024/03/14 01:37:34;;;;;;;7.23;6.53;;;11.60;99.90;;;;;;5090911;28;20225;-73
2024/03/14 01:40:01;;;;;;;6.27;5.67;;;11.60;99.90;;;;;;5093510;28;20851;-73
2024/03/14 01:42:27;;;;;;;8.37;7.57;;;11.60;99.90;;;;;;5076386;28;20437;-72
2024/03/14 01:44:57;;;;;;;7.60;6.80;;;11.60;99.90;;;;;;5058312;28;20460;-73
2024/03/14 01:47:23;;;;;;;9.53;7.37;;;11.60;99.90;;;;;;5075712;28;20918;-73
2024/03/14 01:49:50;;;;;;;8.70;7.80;;;11.60;99.90;;;;;;5075829;28;20401;-73
2024/03/14 01:52:16;;;;;;;12.20;7.70;;;11.60;99.90;;;;;;5094171;28;20514;-73
2024/03/14 01:54:42;;;;;;;8.47;6.93;;;11.60;99.90;;;;;;5096217;28;20454;-73
2024/03/14 01:57:09;;;;;;;9.40;8.50;;;11.60;99.90;;;;;;5095974;28;20180;-72
2024/03/14 01:59:36;;;;;;;8.73;7.83;;;11.60;99.90;;;;;;5096052;28;20176;-72
2024/03/14 02:02:02;;;;;;;10.83;8.43;;;11.60;99.90;;;;;;5108450;22;20517;-69
2024/03/14 02:04:48;;;;;;;10.03;7.93;;;11.50;99.90;;;;;;5078839;28;20666;-69
2024/03/14 02:07:15;;;;;;;8.90;7.70;;;11.50;99.90;;;;;;5096909;28;20394;-69
2024/03/14 02:09:41;;;;;;;10.40;9.40;;;11.50;99.90;;;;;;5097027;28;20395;-69
2024/03/14 02:12:07;;;;;;;8.97;8.00;;;11.40;99.90;;;;;;5096366;28;20502;-69
2024/03/14 02:14:33;;;;;;;8.10;7.30;;;11.30;99.90;;;;;;5096379;28;20532;-69
2024/03/14 02:16:59;;;;;;;9.30;8.40;;;11.30;99.90;;;;;;5096648;28;20822;-69
2024/03/14 02:19:25;;;;;;;7.90;7.10;;;11.30;99.90;;;;;;5096239;28;20448;-69
2024/03/14 02:21:50;;;;;;;7.33;6.70;;;11.20;99.90;;;;;;5096008;28;20193;-69
2024/03/14 02:24:19;;;;;;;10.37;8.40;;;11.20;99.90;;;;;;5096261;28;20301;-69
2024/03/14 02:26:45;;;;;;;10.97;8.13;;;11.20;99.90;;;;;;5095695;28;20165;-69
2024/03/14 02:29:10;;;;;;;10.30;9.30;;;11.20;99.90;;;;;;5096402;28;20468;-69
2024/03/14 02:31:36;;;;;;;11.00;9.97;;;11.20;99.90;;;;;;5078657;28;20192;-69
2024/03/14 02:34:07;;;;;;;12.53;10.77;;;11.00;99.90;;;;;;5096177;28;20169;-69
2024/03/14 02:36:32;;;;;;;10.57;8.93;;;10.90;99.90;;;;;;5096210;28;20153;-69
2024/03/14 02:38:58;;;;;;;15.20;12.07;;;10.80;99.90;;;;;;5096051;28;20413;-69
2024/03/14 02:41:30;;;;;;;11.53;10.20;;;10.50;99.90;;;;;;5097519;28;20189;-70
2024/03/14 02:44:13;;;;;;;11.97;9.80;;;10.60;99.90;;;;;;5097279;28;20392;-69
2024/03/14 02:46:38;;;;;;;12.17;10.17;;;10.70;99.90;;;;;;5095663;28;20402;-69
2024/03/14 02:49:05;;;;;;;9.60;8.70;;;10.70;99.90;;;;;;5095661;28;20395;-69
2024/03/14 02:51:30;;;;;;;11.27;10.07;;;10.70;99.90;;;;;;5094881;28;20182;-70
2024/03/14 02:53:56;;;;;;;11.03;9.60;;;10.70;99.90;;;;;;5095784;28;20406;-70
2024/03/14 02:56:21;;;;;;;9.50;8.53;;;10.70;99.90;;;;;;5095608;28;20164;-70
2024/03/14 02:58:47;;;;;;;11.03;10.00;;;10.60;99.90;;;;;;5096017;28;20242;-70
2024/03/14 03:01:12;;;;;;;10.67;9.57;;;10.60;99.90;;;;;;5095335;28;20692;-70
2024/03/14 03:03:38;;;;;;;14.43;12.93;;;10.60;99.90;;;;;;5095764;28;20169;-70
2024/03/14 03:06:10;;;;;;;11.43;10.23;;;10.50;99.90;;;;;;5095574;28;20245;-70
2024/03/14 03:08:35;;;;;;;12.00;10.90;;;10.40;99.90;;;;;;5095600;28;20256;-70
2024/03/14 03:11:01;;;;;;;12.47;11.27;;;10.40;99.90;;;;;;5095119;28;20428;-70
2024/03/14 03:13:27;;;;;;;13.37;11.90;;;10.30;99.90;;;;;;5095315;28;20210;-70
2024/03/14 03:15:53;;;;;;;10.97;9.90;;;10.30;99.90;;;;;;5095169;28;20170;-70
2024/03/14 03:18:18;;;;;;;11.13;10.10;;;10.30;99.90;;;;;;5095395;28;20198;-69
2024/03/14 03:20:44;;;;;;;12.33;11.13;;;10.20;99.90;;;;;;5078042;28;20532;-70
2024/03/14 03:23:09;;;;;;;10.47;9.37;;;10.10;99.90;;;;;;5095053;28;20203;-70
2024/03/14 03:25:35;;;;;;;9.30;8.40;;;9.90;99.90;;;;;;5094895;28;20601;-69
2024/03/14 03:28:22;;;;;;;10.20;9.00;;;9.80;99.90;;;;;;5095612;28;20162;-70
2024/03/14 03:30:47;;;;;;;11.07;9.97;;;9.80;99.90;;;;;;5095277;28;20388;-72
2024/03/14 03:33:16;;;;;;;9.20;8.30;;;9.90;99.90;;;;;;5094993;28;20403;-70
2024/03/14 03:35:43;;;;;;;11.33;10.23;;;9.80;99.90;;;;;;5095344;28;20192;-70
2024/03/14 03:38:09;;;;;;;11.13;9.93;;;9.90;99.90;;;;;;5095028;28;20416;-70
2024/03/14 03:40:39;;;;;;;9.37;8.47;;;10.00;99.90;;;;;;5094905;28;20450;-70
2024/03/14 03:43:05;;;;;;;6.80;6.20;;;10.10;99.90;;;;;;5094902;28;20276;-69
2024/03/14 03:45:31;;;;;;;10.43;9.40;;;10.10;99.90;;;;;;5094794;28;20448;-71
2024/03/14 03:47:57;;;;;;;7.73;7.03;;;10.10;99.90;;;;;;5094553;28;20408;-70
2024/03/14 03:50:26;;;;;;;9.50;7.07;;;10.20;99.90;;;;;;5094848;28;20178;-70
2024/03/14 03:52:51;;;;;;;7.17;6.50;;;10.10;99.90;;;;;;5094464;28;20185;-70
2024/03/14 03:55:17;;;;;;;10.27;9.27;;;10.10;99.90;;;;;;5076350;28;20414;-70
2024/03/14 03:57:44;;;;;;;8.73;7.93;;;10.10;99.90;;;;;;5094864;28;20177;-70
2024/03/14 04:02:55;;;;;;;7.10;6.40;;;10.10;99.90;;;;;;5073195;28;20509;-70
2024/03/14 04:05:20;;;;;;;8.90;7.43;;;10.00;99.90;;;;;;5074121;28;20863;-70
2024/03/14 04:07:49;;;;;;;7.07;6.47;;;9.90;99.90;;;;;;5072724;28;20169;-70
2024/03/14 04:10:15;;;;;;;7.00;6.17;;;9.90;99.90;;;;;;5073710;28;20190;-70
2024/03/14 04:12:40;;;;;;;7.90;7.13;;;10.00;99.90;;;;;;5093283;28;20417;-70
2024/03/14 04:15:06;;;;;;;8.50;7.30;;;10.00;99.90;;;;;;5075904;28;20408;-70
2024/03/14 04:17:35;;;;;;;8.17;7.37;;;9.90;99.90;;;;;;5094144;28;20183;-69
2024/03/14 04:20:01;;;;;;;8.60;7.70;;;9.90;99.90;;;;;;5093862;28;20403;-70
2024/03/14 04:22:27;;;;;;;7.30;6.60;;;10.00;99.90;;;;;;5093753;28;20783;-69
2024/03/14 04:24:52;;;;;;;7.80;7.00;;;10.00;99.90;;;;;;5093983;28;20495;-70
2024/03/14 04:27:18;;;;;;;6.97;6.37;;;10.00;99.90;;;;;;5093747;28;20257;-70
2024/03/14 04:29:45;;;;;;;8.63;7.73;;;10.00;99.90;;;;;;5094091;28;20163;-69
2024/03/14 04:32:13;;;;;;;8.07;7.37;;;10.10;99.90;;;;;;5093113;28;20202;-70
2024/03/14 04:34:42;;;;;;;8.03;7.20;;;10.00;99.90;;;;;;5093774;28;20414;-70
2024/03/14 04:37:08;;;;;;;7.83;6.80;;;10.00;99.90;;;;;;5093919;28;20414;-70
2024/03/14 04:39:34;;;;;;;8.67;7.53;;;10.00;99.90;;;;;;5093586;28;20843;-70
2024/03/14 04:42:00;;;;;;;8.77;7.20;;;10.00;99.90;;;;;;5093717;28;20192;-70
2024/03/14 04:44:26;;;;;;;6.43;5.90;;;10.00;99.90;;;;;;5093638;28;20273;-70
2024/03/14 04:46:54;;;;;;;6.90;6.20;;;10.00;99.90;;;;;;5093474;28;20521;-70
2024/03/14 04:49:21;;;;;;;7.97;6.37;;;10.00;99.90;;;;;;5093952;28;20169;-70
2024/03/14 04:51:47;;;;;;;8.30;7.50;;;10.00;99.90;;;;;;5093213;28;20422;-69
2024/03/14 04:54:16;;;;;;;7.23;6.53;;;10.00;99.90;;;;;;5093458;28;20892;-70
2024/03/14 04:56:41;;;;;;;8.37;7.53;;;10.00;99.90;;;;;;5093318;28;20197;-70
2024/03/14 04:59:12;;;;;;;8.33;7.53;;;10.00;99.90;;;;;;5093628;28;20393;-70
2024/03/14 05:01:38;;;;;;;8.10;7.30;;;10.00;99.90;;;;;;5093223;28;20415;-70
2024/03/14 05:04:04;;;;;;;6.90;6.20;;;9.90;99.90;;;;;;5093391;28;20528;-70
2024/03/14 05:06:31;;;;;;;8.33;7.57;;;9.90;99.90;;;;;;5075062;28;20601;-69
2024/03/14 05:08:57;;;;;;;7.87;7.07;;;9.90;99.90;;;;;;5093333;28;20173;-70
2024/03/14 05:11:22;;;;;;;5.90;5.30;;;10.00;99.90;;;;;;5093163;28;20936;-70
2024/03/14 05:13:56;;;;;;;6.53;5.93;;;10.00;99.90;;;;;;5093315;28;20577;-70
2024/03/14 05:16:26;;;;;;;7.43;6.73;;;10.00;99.90;;;;;;5093194;28;20163;-70
2024/03/14 05:18:52;;;;;;;8.70;7.80;;;10.00;99.90;;;;;;5093275;28;20422;-69
2024/03/14 05:21:17;;;;;;;9.27;8.37;;;9.90;99.90;;;;;;5092984;28;20849;-70
2024/03/14 05:23:43;;;;;;;8.77;7.87;;;9.60;99.90;;;;;;5093076;28;20169;-70
2024/03/14 05:26:08;;;;;;;7.43;6.73;;;9.80;99.90;;;;;;5092883;28;20243;-69
2024/03/14 05:28:35;;;;;;;8.87;7.97;;;9.80;99.90;;;;;;5074795;28;20175;-70
2024/03/14 05:31:01;;;;;;;8.80;7.90;;;9.90;99.90;;;;;;5093039;28;20178;-70
2024/03/14 05:33:27;;;;;;;11.50;9.80;;;10.00;99.90;;;;;;5092931;28;20768;-70
2024/03/14 05:35:53;;;;;;;9.50;8.60;;;9.70;99.90;;;;;;5092883;28;20233;-70
2024/03/14 05:38:18;;;;;;;11.60;9.37;;;9.70;99.90;;;;;;5093079;28;20183;-69
2024/03/14 05:40:45;;;;;;;9.70;8.70;;;9.70;99.90;;;;;;5093008;28;20414;-71
2024/03/14 05:43:11;;;;;;;12.33;10.40;;;9.70;99.90;;;;;;5092649;28;20720;-69
2024/03/14 05:45:37;;;;;;;14.20;12.27;;;9.70;99.90;;;;;;5092692;28;20450;-69
2024/03/14 05:48:11;;;;;;;11.20;9.83;;;9.80;99.90;;;;;;5092715;28;20619;-69
2024/03/14 05:50:37;;;;;;;10.80;9.70;;;9.90;99.90;;;;;;5092935;28;20154;-70
2024/03/14 05:53:03;;;;;;;9.97;8.97;;;10.00;99.90;;;;;;5091536;28;20427;-69
2024/03/14 05:55:32;;;;;;;10.27;9.17;;;10.00;99.90;;;;;;5092975;28;20452;-69
2024/03/14 05:57:57;;;;;;;10.17;9.10;;;10.00;99.90;;;;;;5092849;28;20405;-69
2024/03/14 06:00:24;;;;;;;9.47;8.07;;;10.00;99.90;;;;;;5092882;28;20889;-69
2024/03/14 06:02:49;;;;;;;12.40;10.40;;;9.90;99.90;;;;;;5092518;28;20213;-70
2024/03/14 06:05:15;;;;;;;11.77;10.37;;;10.00;99.90;;;;;;5092821;28;20451;-70
2024/03/14 06:07:41;;;;;;;11.17;9.97;;;10.00;99.90;;;;;;5092601;28;20175;-69
2024/03/14 06:10:09;;;;;;;14.20;11.70;;;10.10;99.90;;;;;;5092500;28;20250;-69
2024/03/14 06:12:37;;;;;;;14.60;11.90;;;10.20;99.90;;;;;;5092632;28;20516;-69
2024/03/14 06:15:05;;;;;;;13.70;11.97;;;10.20;99.90;;;;;;5092982;28;20773;-69
2024/03/14 06:17:30;;;;;;;12.33;11.03;;;10.10;99.90;;;;;;5092859;28;20830;-70
2024/03/14 06:19:57;;;;;;;13.10;11.70;;;10.20;99.90;;;;;;5091839;28;20445;-70
2024/03/14 06:22:22;;;;;;;12.80;11.00;;;10.10;99.90;;;;;;5092624;28;20267;-70
2024/03/14 06:24:48;;;;;;;13.77;11.40;;;10.20;99.90;;;;;;5092317;28;20455;-70
2024/03/14 06:27:14;;;;;;;12.03;10.73;;;10.40;99.90;;;;;;5093983;28;20170;-72
2024/03/14 06:29:41;;;;;;;11.73;9.80;;;10.40;99.90;;;;;;5095917;28;20169;-70
2024/03/14 06:32:07;;;;;;;12.90;11.10;;;10.40;99.90;;;;;;5096505;28;20200;-70
2024/03/14 06:34:33;;;;;;;14.13;11.10;;;10.40;99.90;;;;;;5097265;28;20403;-69
2024/03/14 06:36:59;;;;;;;14.27;12.77;;;10.40;99.90;;;;;;5096101;28;20182;-70
2024/03/14 06:39:26;;;;;;;14.37;12.50;;;10.50;99.90;;;;;;5095844;28;20173;-70
2024/03/14 06:41:52;;;;;;;15.30;12.30;;;10.50;99.90;;;;;;5095718;28;20438;-70
2024/03/14 06:44:18;;;;;;;15.40;12.63;;;10.50;99.90;;;;;;5096060;28;20494;-70
2024/03/14 06:46:44;;;;;;;15.10;12.90;;;10.50;99.90;;;;;;5095743;28;20489;-69
2024/03/14 06:49:12;;;;;;;14.80;12.63;;;10.60;99.90;;;;;;5095560;28;20646;-70
2024/03/14 06:51:39;;;;;;;14.37;12.83;;;10.70;99.90;;;;;;5095364;28;20197;-70
2024/03/14 06:54:04;;;;;;;14.80;11.50;;;10.80;99.90;;;;;;5095865;28;20486;-70
2024/03/14 06:56:31;;;;;;;16.00;12.70;;;10.90;99.90;;;;;;5095518;28;20449;-69
2024/03/14 06:58:57;;;;;;;17.30;13.30;;;10.80;99.90;;;;;;5095699;28;20627;-70
2024/03/14 07:01:23;;;;;;;17.50;13.70;;;10.80;99.90;;;;;;5095162;28;20439;-69
2024/03/14 07:03:48;;;;;;;17.20;12.50;;;10.80;99.90;;;;;;5095503;28;20260;-70
2024/03/14 07:06:14;;;;;;;16.00;13.83;;;11.00;99.90;;;;;;5095700;28;20216;-70
2024/03/14 07:08:42;;;;;;;15.13;12.77;;;11.00;99.90;;;;;;5095325;28;20208;-70
2024/03/14 07:11:11;;;;;;;14.43;12.93;;;11.20;99.90;;;;;;5095227;28;20217;-69
2024/03/14 07:13:38;;;;;;;16.17;13.10;;;11.20;99.90;;;;;;5095181;28;20438;-70
2024/03/14 07:16:09;;;;;;;13.80;11.97;;;11.20;99.90;;;;;;5093700;28;20442;-70
2024/03/14 07:18:36;;;;;;;14.47;11.97;;;11.40;99.90;;;;;;5095349;28;20394;-69
2024/03/14 07:21:03;;;;;;;18.90;13.60;;;11.50;99.90;;;;;;5095193;28;20409;-70
2024/03/14 07:23:31;;;;;;;14.90;12.43;;;11.50;99.90;;;;;;5094946;28;20436;-70
2024/03/14 07:25:58;;;;;;;13.63;11.43;;;11.50;99.90;;;;;;5095243;28;20456;-70
2024/03/14 07:28:26;;;;;;;18.00;14.30;;;11.40;99.90;;;;;;5094823;28;20838;-69
2024/03/14 07:30:52;;;;;;;13.90;11.60;;;11.30;99.90;;;;;;5094967;28;20404;-70
2024/03/14 07:33:17;;;;;;;15.70;11.80;;;11.40;99.90;;;;;;5094717;28;20756;-71
2024/03/14 07:35:45;;;;;;;14.77;12.97;;;11.40;99.90;;;;;;5094996;28;20631;-70
2024/03/14 07:38:11;;;;;;;14.07;12.10;;;11.50;99.90;;;;;;5094294;28;20254;-70
2024/03/14 07:40:36;;;;;;;13.73;11.40;;;11.50;99.90;;;;;;5094477;28;20468;-71
2024/03/14 07:43:02;;;;;;;14.40;11.10;;;11.50;99.90;;;;;;5094470;28;20423;-71
2024/03/14 07:45:28;;;;;;;13.10;11.57;;;11.60;99.90;;;;;;5094410;28;20221;-71
2024/03/14 07:47:53;;;;;;;12.77;10.87;;;11.80;99.90;;;;;;5094535;28;20769;-69
2024/03/14 07:50:19;;;;;;;15.93;11.60;;;11.70;99.90;;;;;;5094298;28;20172;-70
2024/03/14 07:52:44;;;;;;;12.27;10.97;;;11.70;99.90;;;;;;5094425;28;20211;-69
2024/03/14 07:55:10;;;;;;;14.40;10.40;;;11.90;99.90;;;;;;5093112;28;20193;-71
2024/03/14 07:57:36;;;;;;;13.07;10.70;;;12.00;99.90;;;;;;5094567;28;20246;-69
2024/03/14 08:00:09;;;;;;;14.07;10.80;;;12.20;99.90;;;;;;5094507;28;20172;-70
2024/03/14 08:02:38;;;;;;;11.80;9.77;;;12.10;99.90;;;;;;5117391;22;20226;-72
2024/03/14 08:05:07;;;;;;;11.23;10.02;;;12.10;99.90;;;;;;5092512;28;20436;-73
2024/03/14 08:07:34;;;;;;;9.93;9.00;;;12.60;99.90;;;;;;5093585;28;20259;-74
2024/03/14 08:09:59;;;;;;;12.23;10.17;;;12.60;99.90;;;;;;5093574;28;20526;-73
2024/03/14 08:12:31;;;;;;;9.77;8.33;;;12.60;99.90;;;;;;5093575;28;20460;-72
2024/03/14 08:15:05;;;;;;;11.27;10.07;;;12.70;99.90;;;;;;5093639;28;20207;-73
2024/03/14 08:17:31;;;;;;;9.43;8.47;;;12.80;99.90;;;;;;5093386;28;20732;-72
2024/03/14 08:19:56;;;;;;;9.17;8.20;;;12.80;99.90;;;;;;5093230;28;20411;-74
2024/03/14 08:22:24;;;;;;;9.23;8.13;;;12.80;99.90;;;;;;5093157;28;20195;-73
2024/03/14 08:24:52;;;;;;;8.80;7.90;;;12.80;99.90;;;;;;5093352;28;20677;-74
2024/03/14 08:27:19;;;;;;;10.30;7.70;;;12.60;99.90;;;;;;5093321;28;20406;-74
2024/03/14 08:29:46;;;;;;;9.00;7.70;;;12.40;99.90;;;;;;5075004;28;20408;-73
2024/03/14 08:32:15;;;;;;;11.23;7.97;;;12.40;99.90;;;;;;5093247;28;20959;-74
2024/03/14 08:34:40;;;;;;;8.80;7.90;;;12.60;99.90;;;;;;5093496;28;20481;-73
2024/03/14 08:37:06;;;;;;;7.17;6.47;;;12.70;99.90;;;;;;5093618;28;20453;-74
2024/03/14 08:39:33;;;;;;;8.13;7.33;;;12.40;99.90;;;;;;5093149;28;20196;-73
2024/03/14 08:41:59;;;;;;;8.90;7.97;;;12.30;99.90;;;;;;5090637;28;20426;-74
2024/03/14 08:44:27;;;;;;;7.77;6.83;;;12.40;99.90;;;;;;5092907;28;20401;-74
2024/03/14 08:46:55;;;;;;;6.70;6.00;;;12.50;99.90;;;;;;5092592;28;20408;-73
2024/03/14 08:49:21;;;;;;;8.57;6.70;;;12.70;99.90;;;;;;5092652;28;20412;-73
2024/03/14 08:51:49;;;;;;;7.70;6.83;;;12.50;99.90;;;;;;5093177;28;20505;-73
2024/03/14 08:56:46;;;;;;;10.20;6.50;;;12.00;99.90;;;;;;5093071;28;20389;-70
2024/03/14 08:59:13;;;;;;;6.93;6.00;;;12.10;99.90;;;;;;5092678;28;20403;-73
2024/03/14 09:01:39;;;;;;;7.93;7.10;;;12.40;99.90;;;;;;5091396;28;20413;-71
2024/03/14 09:04:05;;;;;;;6.03;4.87;;;13.00;99.90;;;;;;5092942;28;20720;-72
2024/03/14 09:06:31;;;;;;;5.30;4.80;;;13.10;99.90;;;;;;5092497;28;20534;-74
2024/03/14 09:09:05;;;;;;;7.03;4.80;;;13.00;99.90;;;;;;5092718;28;20646;-74
2024/03/14 09:11:34;;;;;;;5.93;5.33;;;12.90;99.90;;;;;;5092712;28;20253;-75
2024/03/14 09:14:03;;;;;;;5.03;4.60;;;13.10;99.90;;;;;;5072274;28;20406;-73
2024/03/14 09:16:30;;;;;;;5.63;5.03;;;13.10;99.90;;;;;;5072142;28;20443;-76
2024/03/14 09:18:57;;;;;;;5.57;5.07;;;13.30;99.90;;;;;;5053853;28;20519;-74
2024/03/14 09:21:22;;;;;;;8.43;4.97;;;13.20;99.90;;;;;;5071789;28;20407;-73
2024/03/14 09:23:48;;;;;;;5.10;4.43;;;13.30;99.90;;;;;;5090704;28;20457;-72
2024/03/14 09:26:16;;;;;;;4.93;4.43;;;13.60;99.90;;;;;;5092225;28;20198;-73
2024/03/14 09:28:43;;;;;;;5.53;3.83;;;14.00;99.90;;;;;;5092180;28;20399;-73
2024/03/14 09:31:09;;;;;;;6.07;4.27;;;14.20;99.90;;;;;;5091987;28;20746;-72
2024/03/14 09:33:37;;;;;;;4.60;3.37;;;14.10;99.90;;;;;;5092275;28;20462;-73
2024/03/14 09:36:04;;;;;;;5.07;3.70;;;14.30;99.90;;;;;;5092126;28;20169;-72
2024/03/14 09:38:32;;;;;;;3.40;3.10;;;14.30;99.90;;;;;;5090964;28;20948;-74
2024/03/14 09:40:57;;;;;;;2.83;2.53;;;14.30;99.90;;;;;;5092266;28;20405;-74
2024/03/14 09:43:23;;;;;;;2.47;2.10;;;14.50;99.90;;;;;;5091917;28;20425;-70
2024/03/14 09:45:54;;;;;;;3.20;2.90;;;14.80;99.90;;;;;;5091953;28;20566;-72
2024/03/14 09:48:20;;;;;;;2.60;2.40;;;15.10;99.90;;;;;;5092234;28;20603;-73
2024/03/14 09:50:51;;;;;;;2.60;2.40;;;15.20;99.90;;;;;;5091858;28;20394;-73
2024/03/14 09:53:20;;;;;;;4.07;3.00;;;14.90;99.90;;;;;;5091634;28;20423;-73
2024/03/14 09:55:46;;;;;;;2.73;2.53;;;14.60;99.90;;;;;;5091897;28;20493;-74
2024/03/14 09:58:14;;;;;;;2.70;2.50;;;14.40;99.90;;;;;;5091949;28;20445;-73
2024/03/14 10:00:40;;;;;;;3.53;2.63;;;14.70;99.90;;;;;;5092886;28;20461;-73
2024/03/14 10:03:07;;;;;;;3.60;2.70;;;14.90;99.90;;;;;;5095576;28;20477;-71
2024/03/14 10:05:38;;;;;;;4.97;2.40;;;15.20;99.90;;;;;;5095545;28;20453;-73
2024/03/14 10:08:04;;;;;;;2.83;2.37;;;15.50;99.90;;;;;;5095866;28;20380;-73
2024/03/14 10:10:34;;;;;;;3.20;2.40;;;15.80;99.90;;;;;;5079728;28;20406;-74
2024/03/14 10:13:00;;;;;;;2.77;2.53;;;15.60;99.90;;;;;;5095480;28;20426;-73
2024/03/14 10:15:27;;;;;;;2.60;2.33;;;15.60;99.90;;;;;;5095798;28;20475;-72
2024/03/14 10:17:52;;;;;;;2.77;2.47;;;15.40;99.90;;;;;;5095755;28;20648;-73
2024/03/14 10:20:19;;;;;;;3.20;2.90;;;15.20;99.90;;;;;;5095710;28;20406;-72
2024/03/14 10:22:51;;;;;;;3.80;3.30;;;15.50;99.90;;;;;;5094977;28;20269;-72
2024/03/14 10:25:23;;;;;;;2.90;2.70;;;15.30;99.90;;;;;;5095443;28;20929;-73
2024/03/14 10:27:51;;;;;;;3.57;2.97;;;15.10;99.90;;;;;;5095310;28;20919;-72
2024/03/14 10:30:18;;;;;;;4.63;2.97;;;14.80;99.90;;;;;;5095523;28;20913;-71
2024/03/14 10:32:46;;;;;;;2.50;2.23;;;14.90;99.90;;;;;;5077226;28;20430;-74
2024/03/14 10:35:14;;;;;;;2.93;2.30;;;15.10;99.90;;;;;;5095262;28;20407;-72
2024/03/14 10:37:41;;;;;;;2.07;1.90;;;15.50;99.90;;;;;;5095169;28;20412;-73
2024/03/14 10:40:20;;;;;;;3.30;2.27;;;15.80;99.90;;;;;;5095049;28;20411;-72
2024/03/14 10:42:50;;;;;;;2.83;2.20;;;15.90;99.90;;;;;;5095040;28;20554;-73
2024/03/14 10:45:16;;;;;;;3.92;2.50;;;15.80;99.90;;;;;;5094542;28;20486;-72
2024/03/14 10:47:42;;;;;;;2.30;2.10;;;16.20;99.90;;;;;;5076640;28;20179;-73
2024/03/14 10:50:16;;;;;;;2.03;1.83;;;16.10;99.90;;;;;;5095094;28;20399;-73
2024/03/14 10:52:49;;;;;;;4.80;2.03;;;16.50;99.90;;;;;;5081991;28;20470;-73
2024/03/14 10:55:21;;;;;;;1.77;1.67;;;16.80;99.90;;;;;;5095022;28;20399;-73
2024/03/14 10:57:48;;;;;;;4.53;2.67;;;17.30;99.90;;;;;;5094896;28;20902;-73
2024/03/14 11:00:22;;;;;;;2.83;2.33;;;17.40;99.90;;;;;;5094790;28;20435;-72
2024/03/14 11:02:49;;;;;;;2.40;2.17;;;17.60;99.90;;;;;;5094627;28;20974;-72
2024/03/14 11:05:22;;;;;;;2.00;1.80;;;17.50;99.90;;;;;;5094597;28;20455;-72
2024/03/14 11:07:53;;;;;;;2.47;2.00;;;17.90;99.90;;;;;;5076493;28;20404;-73
2024/03/14 11:10:28;;;;;;;2.27;2.07;;;18.10;99.90;;;;;;5094655;28;20390;-73
2024/03/14 11:13:01;;;;;;;6.33;2.27;;;18.30;99.90;;;;;;5094083;28;20521;-72
2024/03/14 11:15:28;;;;;;;3.60;2.33;;;18.80;99.90;;;;;;5094572;28;20882;-73
2024/03/14 11:17:59;;;;;;;5.10;2.33;;;18.90;99.90;;;;;;5094532;28;20490;-72
2024/03/14 11:20:32;;;;;;;5.60;2.27;;;19.00;99.90;;;;;;5094639;28;20827;-73
2024/03/14 11:23:00;;;;;;;6.63;2.37;;;19.00;99.90;;;;;;5094652;28;20435;-73
2024/03/14 11:25:27;;;;;;;2.10;1.77;;;19.10;99.90;;;;;;5094342;28;20424;-73
2024/03/14 11:27:57;;;;;;;2.70;1.93;;;19.00;99.90;;;;;;5094315;28;20197;-72
2024/03/14 11:30:24;;;;;;;2.50;1.77;;;19.20;99.90;;;;;;5094417;28;20486;-72
2024/03/14 11:32:57;;;;;;;1.87;1.60;;;19.60;99.90;;;;;;5094051;28;20842;-71
2024/03/14 11:35:37;;;;;;;2.08;1.75;;;20.30;99.90;;;;;;5093811;28;20458;-73
2024/03/14 11:38:28;;;;;;;2.53;1.50;;;20.70;99.90;;;;;;5094428;28;20173;-73
2024/03/14 11:40:58;;;;;;;2.00;1.80;;;20.60;99.90;;;;;;5094186;28;20778;-70
2024/03/14 11:43:24;;;;;;;2.17;1.77;;;20.40;99.90;;;;;;5082681;28;20436;-73
2024/03/14 11:45:59;;;;;;;2.43;1.43;;;20.30;99.90;;;;;;5093733;28;20490;-71
2024/03/14 11:48:26;;;;;;;2.10;1.23;;;20.20;99.90;;;;;;5093924;28;20481;-70
2024/03/14 11:50:53;;;;;;;1.50;1.33;;;20.20;99.90;;;;;;5094842;28;20406;-72
2024/03/14 11:53:22;;;;;;;3.50;1.60;;;20.50;99.90;;;;;;5093230;28;20887;-71
2024/03/14 11:55:48;;;;;;;2.87;1.50;;;20.50;99.90;;;;;;5094547;28;20173;-72
2024/03/14 11:58:18;;;;;;;1.60;1.40;;;21.00;99.90;;;;;;5094322;28;20492;-72
2024/03/14 12:00:47;;;;;;;3.10;1.27;;;21.60;99.90;;;;;;5094207;28;20410;-72
2024/03/14 12:03:13;;;;;;;1.73;1.60;;;21.80;98.40;;;;;;5095380;28;20537;-72
2024/03/14 12:05:44;;;;;;;2.20;1.30;;;21.70;98.20;;;;;;5092769;28;20427;-73
2024/03/14 12:08:15;;;;;;;1.27;1.17;;;22.20;97.90;;;;;;5093589;28;20138;-72
2024/03/14 12:10:41;;;;;;;2.20;1.20;;;22.90;96.60;;;;;;5093536;28;20808;-72
2024/03/14 12:13:14;;;;;;;1.93;1.67;;;24.30;95.10;;;;;;5093264;28;20419;-72
2024/03/14 12:15:41;;;;;;;2.37;1.60;;;24.30;94.50;;;;;;5093566;28;20402;-73
2024/03/14 12:18:09;;;;;;;2.30;1.20;;;24.40;92.60;;;;;;5093069;28;20465;-73
2024/03/14 12:20:36;;;;;;;1.20;1.00;;;23.60;93.70;;;;;;5093470;28;20419;-73
2024/03/14 12:23:03;;;;;;;2.23;1.10;;;23.30;93.80;;;;;;5074798;28;20423;-70
2024/03/14 12:25:29;;;;;;;1.43;1.03;;;23.40;93.10;;;;;;5091964;28;20451;-72
2024/03/14 12:27:58;;;;;;;1.93;1.30;;;22.70;93.30;;;;;;5092709;28;20411;-72
2024/03/14 12:30:25;;;;;;;1.57;1.00;;;23.70;93.20;;;;;;5093165;28;20395;-72
2024/03/14 12:32:54;;;;;;;1.30;0.93;;;23.90;92.60;;;;;;5092928;28;20552;-72
2024/03/14 12:35:21;;;;;;;1.97;1.53;;;24.60;91.30;;;;;;5092830;28;20399;-72
2024/03/14 12:37:52;;;;;;;1.03;0.90;;;26.60;88.80;;;;;;5093210;28;20448;-72
2024/03/14 12:40:19;;;;;;;3.33;1.13;;;25.80;86.60;;;;;;5092884;28;20407;-72
2024/03/14 12:42:53;;;;;;;1.40;1.00;;;26.60;84.50;;;;;;5092926;28;20423;-72
2024/03/14 12:45:19;;;;;;;2.73;1.80;;;27.60;80.20;;;;;;5092980;28;20434;-72
2024/03/14 12:47:47;;;;;;;9.03;1.60;;;27.20;79.30;;;;;;5091262;28;20486;-72
2024/03/14 12:50:24;;;;;;;0.90;0.80;;;28.70;76.40;;;;;;5092687;28;20475;-72